Time;durP1;ratioP1;P1;durP2;ratioP2;P2;SDS_P1;SDS_P2;PMS_P1;PMS_P2;Temp;Humidity;BMP_temperature;BMP_pressure;BME280_temperature;BME280_humidity;BME280_pressure;Samples;Min_cycle;Max_cycle;Signal;HPM_P1;HPM_P2
2022/07/10 00:02:12;;;;;;;12.07;4.00;;;;;;;19.96;52.03;100004.09;123659;1099;104351;-74
2022/07/10 00:04:44;;;;;;;5.83;3.80;;;;;;;19.91;52.59;99989.92;123648;1099;104248;-75
2022/07/10 00:07:15;;;;;;;7.87;3.80;;;;;;;19.88;52.63;99996.17;123415;1099;104296;-75
2022/07/10 00:09:47;;;;;;;6.27;3.53;;;;;;;19.84;52.57;99988.23;123589;1099;104293;-75
2022/07/10 00:12:18;;;;;;;6.35;3.80;;;;;;;19.80;52.82;99992.69;123572;1099;104396;-75
2022/07/10 00:14:49;;;;;;;5.40;3.70;;;;;;;19.80;52.59;99991.82;123690;1099;104290;-74
2022/07/10 00:17:21;;;;;;;9.13;3.60;;;;;;;19.77;52.84;99986.53;123610;1098;104270;-75
2022/07/10 00:19:52;;;;;;;8.30;3.90;;;;;;;19.74;53.33;99976.75;123502;1099;104299;-75
2022/07/10 00:22:24;;;;;;;6.23;3.60;;;;;;;19.70;53.11;99981.23;123601;1099;104293;-74
2022/07/10 00:24:56;;;;;;;6.33;3.53;;;;;;;19.68;52.73;99982.12;123645;1099;104224;-75
2022/07/10 00:27:28;;;;;;;6.57;3.60;;;;;;;19.65;53.13;99982.16;123618;1099;104718;-74
2022/07/10 00:30:00;;;;;;;11.83;3.83;;;;;;;19.61;52.74;99983.98;123560;1099;104265;-74
2022/07/10 00:32:32;;;;;;;5.47;3.50;;;;;;;19.56;53.45;99988.47;123608;1099;104265;-75
2022/07/10 00:35:04;;;;;;;6.10;3.57;;;;;;;19.52;53.41;99990.25;123619;1099;104187;-75
2022/07/10 00:37:37;;;;;;;5.07;3.60;;;;;;;19.49;53.96;99978.77;123641;1098;104223;-75
2022/07/10 00:40:10;;;;;;;8.10;3.90;;;;;;;19.46;53.66;99982.36;123612;1099;104316;-74
2022/07/10 00:42:41;;;;;;;8.43;4.03;;;;;;;19.43;53.78;99974.41;123714;1099;104259;-75
2022/07/10 00:45:13;;;;;;;7.55;4.10;;;;;;;19.40;53.72;99971.77;123675;1098;104664;-74
2022/07/10 00:47:45;;;;;;;7.43;3.80;;;;;;;19.33;54.77;99970.92;123688;1099;104353;-74
2022/07/10 00:50:16;;;;;;;6.67;3.90;;;;;;;19.25;55.05;99959.47;123567;1099;104255;-74
2022/07/10 00:52:49;;;;;;;7.07;3.70;;;;;;;19.20;54.25;99953.32;123723;1099;104351;-74
2022/07/10 00:55:21;;;;;;;7.83;3.70;;;;;;;19.15;54.86;99950.70;123634;1098;104341;-74
2022/07/10 00:57:52;;;;;;;5.23;3.70;;;;;;;19.11;54.83;99953.39;123718;1099;104290;-74
2022/07/10 01:00:25;;;;;;;7.27;3.90;;;;;;;19.06;55.19;99945.45;123626;1098;104238;-75
2022/07/10 01:02:56;;;;;;;8.17;3.70;;;;;;;19.01;55.17;99945.48;123589;1099;104357;-75
2022/07/10 01:05:28;;;;;;;6.03;3.70;;;;;;;18.95;55.21;99948.20;123631;1098;104322;-75
2022/07/10 01:07:59;;;;;;;6.30;3.63;;;;;;;18.91;55.60;99935.80;123591;1098;104342;-75
2022/07/10 01:10:32;;;;;;;7.45;3.60;;;;;;;18.89;55.28;99942.92;123541;1099;104796;-74
2022/07/10 01:13:05;;;;;;;6.50;3.30;;;;;;;18.86;55.45;99938.50;123503;1098;104466;-75
2022/07/10 01:15:36;;;;;;;6.50;3.70;;;;;;;18.85;55.94;99933.19;123453;1098;104348;-75
2022/07/10 01:18:08;;;;;;;6.47;3.53;;;;;;;18.83;55.67;99935.83;123633;1099;104232;-74
2022/07/10 01:20:40;;;;;;;8.60;3.70;;;;;;;18.79;56.47;99942.08;123513;1099;104278;-74
2022/07/10 01:23:11;;;;;;;6.73;4.00;;;;;;;18.78;56.68;99942.09;123601;1098;104283;-75
2022/07/10 01:25:43;;;;;;;5.73;3.53;;;;;;;18.75;56.52;99936.80;123548;1099;104739;-74
2022/07/10 01:28:14;;;;;;;6.80;3.80;;;;;;;18.73;56.17;99935.90;123461;1099;104329;-73
2022/07/10 01:30:46;;;;;;;6.70;3.60;;;;;;;18.72;55.93;99939.47;123715;1099;104210;-74
2022/07/10 01:33:18;;;;;;;6.17;3.67;;;;;;;18.71;57.10;99935.91;123456;1099;104280;-75
2022/07/10 01:35:49;;;;;;;6.97;4.00;;;;;;;18.67;57.13;99940.37;123534;1099;104187;-74
2022/07/10 01:38:20;;;;;;;8.13;3.73;;;;;;;18.65;57.05;99941.26;123720;1099;104294;-75
2022/07/10 01:40:52;;;;;;;6.90;4.27;;;;;;;18.63;57.87;99940.40;123467;1099;104501;-74
2022/07/10 01:43:23;;;;;;;7.93;4.20;;;;;;;18.58;57.22;99934.24;123528;1099;104339;-74
2022/07/10 01:45:54;;;;;;;9.23;4.10;;;;;;;18.56;57.74;99944.88;123490;1099;104213;-74
2022/07/10 01:48:26;;;;;;;8.43;4.10;;;;;;;18.52;57.47;99943.12;123515;1099;104718;-75
2022/07/10 01:50:57;;;;;;;8.77;4.13;;;;;;;18.49;58.35;99948.45;123540;1099;104210;-75
2022/07/10 01:53:29;;;;;;;9.13;4.13;;;;;;;18.44;57.93;99942.29;123451;1099;104316;-74
2022/07/10 01:56:01;;;;;;;5.60;3.93;;;;;;;18.40;58.47;99948.50;123546;1099;104329;-75
2022/07/10 01:58:33;;;;;;;7.27;4.10;;;;;;;18.36;58.40;99942.33;123474;1099;104245;-74
2022/07/10 02:01:05;;;;;;;8.90;4.33;;;;;;;18.37;58.79;99946.76;123500;1099;104216;-76
2022/07/10 02:06:26;;;;;;;9.00;4.17;;;;;;;18.29;59.13;99953.86;123509;1099;104402;-75
2022/07/10 02:08:57;;;;;;;6.27;4.30;;;;;;;18.27;58.82;99960.95;123490;1099;104335;-75
2022/07/10 02:11:28;;;;;;;6.90;4.23;;;;;;;18.24;59.54;99959.19;123478;1099;104297;-75
2022/07/10 02:14:00;;;;;;;7.60;4.13;;;;;;;18.20;59.33;99973.39;123560;1099;104268;-75
2022/07/10 02:16:31;;;;;;;9.43;4.30;;;;;;;18.14;59.33;99974.28;123500;1098;104277;-74
2022/07/10 02:19:02;;;;;;;9.37;4.63;;;;;;;18.14;59.69;99970.75;123420;1099;104421;-74
2022/07/10 02:21:34;;;;;;;9.70;4.35;;;;;;;18.10;59.62;99963.68;123477;1099;105219;-74
2022/07/10 02:24:05;;;;;;;7.70;3.90;;;;;;;18.11;59.59;99978.73;123521;1099;104280;-75
2022/07/10 02:26:37;;;;;;;9.53;4.50;;;;;;;18.09;60.07;99973.42;123523;1098;104341;-75
2022/07/10 02:29:08;;;;;;;7.63;4.40;;;;;;;18.08;59.93;99974.30;123487;1099;104338;-74
2022/07/10 02:31:41;;;;;;;9.60;4.20;;;;;;;18.07;60.14;99983.14;123431;1099;105457;-74
2022/07/10 02:34:13;;;;;;;7.70;4.40;;;;;;;18.07;60.36;99972.52;123496;1098;104271;-75
2022/07/10 02:36:44;;;;;;;8.47;4.20;;;;;;;18.05;61.35;99976.09;123465;1099;104320;-75
2022/07/10 02:39:15;;;;;;;7.53;4.10;;;;;;;18.01;60.38;99963.70;123517;1099;104286;-74
2022/07/10 02:41:47;;;;;;;6.57;4.37;;;;;;;18.01;60.49;99972.55;123496;1099;104322;-74
2022/07/10 02:44:18;;;;;;;11.90;4.57;;;;;;;18.04;60.52;99972.53;123466;1098;104390;-75
2022/07/10 02:46:50;;;;;;;9.03;4.50;;;;;;;18.04;60.98;99967.23;123529;1099;104697;-74
2022/07/10 02:49:21;;;;;;;9.37;4.27;;;;;;;18.03;60.82;99972.54;123499;1098;104354;-74
2022/07/10 02:51:53;;;;;;;9.97;4.20;;;;;;;18.03;60.46;99969.88;123519;1099;105665;-74
2022/07/10 02:54:24;;;;;;;9.27;4.67;;;;;;;18.01;61.32;99972.55;123532;1098;104316;-75
2022/07/10 02:56:55;;;;;;;8.17;4.40;;;;;;;18.01;61.26;99964.58;123489;1099;104389;-75
2022/07/10 02:59:27;;;;;;;8.45;4.45;;;;;;;18.01;61.39;99966.36;123565;1099;104251;-75
2022/07/10 03:01:58;;;;;;;11.13;4.63;;;;;;;17.99;61.17;99970.80;123475;1099;104376;-75
2022/07/10 03:04:30;;;;;;;8.60;4.43;;;;;;;17.98;61.30;99964.59;123530;1099;104188;-75
2022/07/10 03:07:02;;;;;;;8.40;4.60;;;;;;;17.99;61.19;99962.84;123513;1099;104823;-75
2022/07/10 03:09:33;;;;;;;9.47;4.17;;;;;;;18.00;61.92;99964.59;123511;1099;104376;-75
2022/07/10 03:12:05;;;;;;;10.10;4.83;;;;;;;18.02;61.99;99966.36;123537;1099;104242;-75
2022/07/10 03:14:37;;;;;;;11.00;4.50;;;;;;;18.03;62.27;99976.10;123475;1099;104367;-75
2022/07/10 03:17:10;;;;;;;10.03;4.37;;;;;;;18.04;62.19;99964.57;123547;1099;104239;-75
2022/07/10 03:19:41;;;;;;;9.23;4.23;;;;;;;18.03;62.22;99960.17;123503;1099;104187;-74
2022/07/10 03:22:13;;;;;;;7.13;4.30;;;;;;;18.04;62.27;99961.05;123433;1098;104392;-74
2022/07/10 03:24:46;;;;;;;12.10;5.13;;;;;;;18.04;61.91;99963.70;123546;1099;104236;-74
2022/07/10 03:27:18;;;;;;;8.20;4.73;;;;;;;18.05;63.40;99962.82;123591;1099;104345;-75
2022/07/10 03:29:49;;;;;;;7.50;4.20;;;;;;;18.05;62.79;99955.73;123511;1099;104242;-75
2022/07/10 03:32:20;;;;;;;8.60;4.57;;;;;;;18.08;62.76;99965.47;123493;1099;104427;-74
2022/07/10 03:34:52;;;;;;;9.80;4.50;;;;;;;18.12;62.54;99961.89;123484;1099;104268;-74
2022/07/10 03:37:23;;;;;;;8.23;4.30;;;;;;;18.14;62.21;99955.70;123517;1098;104325;-74
2022/07/10 03:39:54;;;;;;;6.53;4.30;;;;;;;18.18;62.61;99968.96;123498;1099;104341;-74
2022/07/10 03:42:26;;;;;;;5.30;3.80;;;;;;;18.18;62.66;99956.55;123531;1099;104351;-75
2022/07/10 03:44:57;;;;;;;9.50;4.07;;;;;;;18.18;62.32;99959.21;123526;1099;104320;-75
2022/07/10 03:47:29;;;;;;;7.63;4.40;;;;;;;18.22;62.72;99955.67;123781;1099;104402;-75
2022/07/10 03:50:01;;;;;;;7.50;3.70;;;;;;;18.28;62.59;99960.08;123839;1099;104240;-74
2022/07/10 03:52:32;;;;;;;7.73;3.90;;;;;;;18.30;62.56;99951.19;123724;1099;104641;-75
2022/07/10 03:55:04;;;;;;;8.43;4.10;;;;;;;18.32;62.29;99949.44;123772;1099;104338;-75
2022/07/10 04:00:38;;;;;;;7.05;4.00;;;;;;;18.38;62.32;99944.97;123349;1102;104425;-75
2022/07/10 04:03:10;;;;;;;6.90;3.90;;;;;;;18.38;62.42;99951.16;123176;1102;104441;-75
2022/07/10 04:05:42;;;;;;;8.45;3.90;;;;;;;18.39;62.55;99944.97;123284;1102;104874;-75
2022/07/10 04:08:13;;;;;;;7.37;4.00;;;;;;;18.40;62.24;99943.19;123185;1102;104274;-74
2022/07/10 04:10:45;;;;;;;7.57;3.77;;;;;;;18.43;62.42;99941.42;123156;1102;104364;-75
2022/07/10 04:13:17;;;;;;;7.10;3.73;;;;;;;18.46;62.28;99943.15;123148;1102;105040;-75
2022/07/10 04:15:48;;;;;;;8.80;3.30;;;;;;;18.47;62.21;99934.30;123270;1102;104740;-74
2022/07/10 04:18:19;;;;;;;6.95;3.70;;;;;;;18.54;62.49;99932.48;123162;1102;104397;-75
2022/07/10 04:20:51;;;;;;;5.60;3.60;;;;;;;18.57;62.33;99935.13;123200;1102;104210;-74
2022/07/10 04:23:22;;;;;;;5.17;3.40;;;;;;;18.60;62.06;99930.66;123226;1102;104401;-75
2022/07/10 04:25:54;;;;;;;4.77;3.37;;;;;;;18.64;61.96;99934.20;123228;1102;104443;-75
2022/07/10 04:28:25;;;;;;;4.73;3.10;;;;;;;18.66;62.07;99933.28;123207;1102;104383;-75
2022/07/10 04:30:57;;;;;;;4.77;3.13;;;;;;;18.70;61.75;99939.48;123216;1102;104405;-75
2022/07/10 04:33:28;;;;;;;5.40;3.47;;;;;;;18.73;61.91;99938.55;123273;1102;104252;-74
2022/07/10 04:35:59;;;;;;;5.23;3.30;;;;;;;18.75;61.70;99935.01;123421;1099;104354;-74
2022/07/10 04:38:31;;;;;;;5.43;3.10;;;;;;;18.80;61.71;99938.50;123514;1099;104363;-75
2022/07/10 04:41:03;;;;;;;4.00;3.10;;;;;;;18.87;61.80;99934.08;123519;1098;104217;-75
2022/07/10 04:43:35;;;;;;;8.17;3.07;;;;;;;18.91;62.00;99935.80;123693;1098;104329;-74
2022/07/10 04:46:06;;;;;;;5.40;3.20;;;;;;;18.99;61.55;99941.06;123865;1099;104236;-74
2022/07/10 04:48:38;;;;;;;4.37;2.90;;;;;;;19.04;61.32;99932.17;123790;1099;104351;-74
2022/07/10 04:51:09;;;;;;;6.77;3.30;;;;;;;19.14;61.35;99924.12;123631;1099;104319;-74
2022/07/10 04:53:41;;;;;;;3.93;2.90;;;;;;;19.21;61.34;99929.38;123679;1098;104245;-74
2022/07/10 04:56:12;;;;;;;6.40;3.10;;;;;;;19.28;61.59;99932.84;123760;1099;104367;-74
2022/07/10 04:58:44;;;;;;;4.23;2.77;;;;;;;19.36;61.66;99930.13;123510;1099;104272;-74
2022/07/10 05:01:15;;;;;;;5.53;3.10;;;;;;;19.44;61.56;99930.92;123935;1099;104303;-74
2022/07/10 05:03:46;;;;;;;5.10;3.00;;;;;;;19.51;61.31;99929.98;123744;1099;104164;-74
2022/07/10 05:06:18;;;;;;;6.20;2.93;;;;;;;19.56;60.94;99925.48;123542;1099;104453;-75
2022/07/10 05:08:49;;;;;;;5.10;2.73;;;;;;;19.63;60.33;99926.28;123493;1099;104159;-75
2022/07/10 05:11:21;;;;;;;4.00;2.70;;;;;;;19.70;60.51;99919.14;123565;1098;104226;-75
2022/07/10 05:13:52;;;;;;;3.90;2.53;;;;;;;19.75;60.65;99919.96;123527;1098;104332;-75
2022/07/10 05:16:23;;;;;;;4.43;2.60;;;;;;;19.81;60.36;99917.27;123517;1099;106941;-75
2022/07/10 05:18:55;;;;;;;3.07;2.77;;;;;;;19.88;59.58;99916.30;123567;1099;104655;-75
2022/07/10 05:21:26;;;;;;;3.27;2.63;;;;;;;19.95;59.74;99906.45;123541;1099;104300;-75
2022/07/10 05:23:57;;;;;;;6.23;2.50;;;;;;;20.03;59.22;99917.02;123562;1099;104249;-75
2022/07/10 05:26:29;;;;;;;5.40;2.50;;;;;;;20.10;59.14;99900.03;123479;1099;119046;-75
2022/07/10 05:29:00;;;;;;;5.23;2.90;;;;;;;20.16;59.23;99907.08;123521;1099;104393;-74
2022/07/10 05:31:32;;;;;;;4.63;2.70;;;;;;;20.23;58.58;99911.44;123545;1099;104342;-75
2022/07/10 05:34:03;;;;;;;3.70;2.55;;;;;;;20.27;58.27;99907.80;123504;1099;104291;-75
2022/07/10 05:36:34;;;;;;;5.63;2.40;;;;;;;20.33;58.15;99905.06;123512;1099;104236;-75
2022/07/10 05:39:06;;;;;;;4.17;2.30;;;;;;;20.39;58.10;99902.31;123582;1099;104312;-75
2022/07/10 05:41:37;;;;;;;3.30;2.53;;;;;;;20.45;57.37;99898.69;123350;1099;104434;-74
2022/07/10 05:44:09;;;;;;;6.40;2.60;;;;;;;20.53;58.31;99899.45;123492;1099;104376;-75
2022/07/10 05:46:40;;;;;;;3.00;2.30;;;;;;;20.63;58.10;99903.75;123466;1099;104261;-75
2022/07/10 05:49:12;;;;;;;2.80;2.50;;;;;;;20.70;57.68;99904.56;123276;1099;104296;-75
2022/07/10 05:51:43;;;;;;;3.50;2.33;;;;;;;20.74;56.96;99898.29;123519;1099;104383;-75
2022/07/10 05:54:15;;;;;;;3.50;2.25;;;;;;;20.77;56.43;99906.24;123501;1099;104329;-76
2022/07/10 05:56:46;;;;;;;3.93;2.53;;;;;;;20.81;56.46;99894.60;123444;1099;104248;-74
2022/07/10 05:59:17;;;;;;;4.90;2.40;;;;;;;20.88;56.62;99882.07;123531;1099;104287;-74
2022/07/10 06:01:49;;;;;;;3.30;2.20;;;;;;;20.94;56.91;99889.07;123506;1098;104259;-75
2022/07/10 06:04:20;;;;;;;4.07;2.20;;;;;;;21.01;55.89;99885.41;123486;1099;104315;-75
2022/07/10 06:06:52;;;;;;;5.00;2.50;;;;;;;21.08;56.97;99876.38;123436;1099;104280;-74
2022/07/10 06:09:23;;;;;;;4.07;2.40;;;;;;;21.16;55.87;99878.91;123596;1099;104246;-75
2022/07/10 06:11:55;;;;;;;3.87;2.33;;;;;;;21.21;56.06;99870.83;123500;1099;104640;-76
2022/07/10 06:14:26;;;;;;;2.93;2.37;;;;;;;21.27;55.50;99865.38;123551;1099;104673;-75
2022/07/10 06:16:57;;;;;;;2.63;1.90;;;;;;;21.30;55.09;99871.56;123488;1099;104190;-75
2022/07/10 06:19:28;;;;;;;4.93;2.37;;;;;;;21.37;54.64;99858.97;123557;1099;104398;-75
2022/07/10 06:24:49;;;;;;;2.40;2.13;;;;;;;21.49;54.04;99855.23;123521;1099;104248;-76
2022/07/10 06:27:20;;;;;;;2.17;1.93;;;;;;;21.59;53.71;99846.12;123568;1099;104353;-76
2022/07/10 06:29:52;;;;;;;5.43;2.20;;;;;;;21.67;53.97;99844.16;123528;1099;104309;-74
2022/07/10 06:32:24;;;;;;;5.17;2.20;;;;;;;21.75;52.78;99854.69;123537;1099;104470;-74
2022/07/10 06:34:56;;;;;;;3.17;2.10;;;;;;;21.79;52.18;99844.84;123744;1099;104252;-75
2022/07/10 06:37:27;;;;;;;6.27;2.40;;;;;;;21.85;52.80;99842.05;123540;1099;104238;-74
2022/07/10 06:39:59;;;;;;;2.33;2.00;;;;;;;21.95;51.46;99846.27;123580;1099;104259;-74
2022/07/10 06:42:30;;;;;;;3.90;2.23;;;;;;;21.99;51.55;99839.08;123710;1099;104689;-74
2022/07/10 06:45:04;;;;;;;2.20;2.10;;;;;;;22.08;51.53;99842.42;123526;1099;104415;-75
2022/07/10 06:50:26;;;;;;;4.63;2.20;;;;;;;22.20;50.79;99829.70;123593;1099;104319;-75
2022/07/10 06:52:58;;;;;;;2.85;2.42;;;;;;;22.30;50.59;99830.35;123535;1099;104306;-76
2022/07/10 06:55:30;;;;;;;3.50;2.20;;;;;;;22.37;50.25;99827.53;123729;1099;104211;-74
2022/07/10 06:58:02;;;;;;;2.87;2.07;;;;;;;22.47;49.72;99829.99;123532;1099;104236;-75
2022/07/10 07:00:34;;;;;;;2.17;1.97;;;;;;;22.53;48.33;99824.50;123617;1099;104339;-75
2022/07/10 07:03:05;;;;;;;6.77;2.23;;;;;;;22.65;48.07;99817.98;123541;1099;104337;-74
2022/07/10 07:05:38;;;;;;;2.13;1.50;;;;;;;22.71;47.73;99834.75;123698;1099;104243;-75
2022/07/10 07:08:09;;;;;;;4.07;2.00;;;;;;;22.83;47.81;99821.97;123499;1099;104280;-75
2022/07/10 07:10:41;;;;;;;2.03;1.70;;;;;;;22.93;46.32;99820.83;123517;1099;104408;-75
2022/07/10 07:13:12;;;;;;;2.43;1.63;;;;;;;23.08;46.74;99808.86;123630;1099;104345;-74
2022/07/10 07:15:50;;;;;;;2.43;2.00;;;;;;;23.27;47.28;99817.30;123638;1099;104278;-75
2022/07/10 07:18:31;;;;;;;7.13;1.93;;;;;;;23.41;45.56;99803.52;123556;1099;104163;-75
2022/07/10 07:23:51;;;;;;;1.80;1.50;;;;;;;23.69;44.25;99799.11;123584;1099;104344;-75
2022/07/10 07:26:22;;;;;;;5.85;1.90;;;;;;;23.86;44.18;99800.45;123567;1099;104248;-74
2022/07/10 07:28:54;;;;;;;9.43;2.00;;;;;;;24.02;44.17;99793.69;123503;1098;112821;-75
2022/07/10 07:31:25;;;;;;;5.50;1.50;;;;;;;24.13;43.17;99800.53;123533;1099;104245;-75
2022/07/10 07:33:58;;;;;;;7.10;1.90;;;;;;;24.17;42.49;99807.56;123681;1099;104194;-76
2022/07/10 07:36:30;;;;;;;4.17;1.93;;;;;;;24.30;40.93;99811.59;123394;1099;104344;-74
2022/07/10 07:39:01;;;;;;;6.40;1.67;;;;;;;24.44;40.74;99796.88;123875;1099;104242;-75
2022/07/10 07:41:33;;;;;;;7.60;1.70;;;;;;;24.63;41.38;99797.16;123620;1099;104338;-75
2022/07/10 07:44:04;;;;;;;9.43;2.20;;;;;;;24.79;41.31;99802.87;123319;1099;104331;-74
2022/07/10 07:46:36;;;;;;;5.53;1.63;;;;;;;24.99;41.48;99796.83;123796;1099;104265;-75
2022/07/10 07:49:07;;;;;;;3.93;1.40;;;;;;;25.10;40.38;99806.27;123608;1099;104689;-75
2022/07/10 07:51:39;;;;;;;3.93;1.60;;;;;;;25.23;41.31;99809.39;123524;1099;104691;-76
2022/07/10 07:54:10;;;;;;;5.63;1.80;;;;;;;25.40;40.44;99803.44;123588;1099;104341;-76
2022/07/10 07:56:41;;;;;;;2.20;1.90;;;;;;;25.65;40.60;99795.34;123462;1099;104275;-76
2022/07/10 07:59:13;;;;;;;4.75;1.70;;;;;;;25.91;40.31;99798.82;123503;1099;104338;-75
2022/07/10 08:01:44;;;;;;;2.73;1.70;;;;;;;26.05;39.18;99794.77;123503;1099;104188;-76
2022/07/10 08:04:16;;;;;;;5.17;1.80;;;;;;;26.08;38.84;99795.51;123579;1099;104254;-76
2022/07/10 08:06:48;;;;;;;5.43;1.50;;;;;;;25.98;38.51;99795.00;123656;1099;104230;-75
2022/07/10 08:09:19;;;;;;;3.53;1.30;;;;;;;26.08;38.35;99806.26;123291;1100;104623;-75
2022/07/10 08:11:51;;;;;;;3.10;1.30;;;;;;;26.14;37.98;99795.27;123513;1099;104336;-75
2022/07/10 08:14:22;;;;;;;1.87;1.20;;;;;;;26.28;37.71;99791.16;123484;1099;104444;-75
2022/07/10 08:16:53;;;;;;;7.50;1.50;;;;;;;26.45;37.99;99785.09;123533;1099;104290;-75
2022/07/10 08:19:25;;;;;;;2.13;1.77;;;;;;;26.49;36.18;99806.42;123490;1099;104235;-75
2022/07/10 08:21:56;;;;;;;2.00;1.70;;;;;;;26.43;36.33;99793.22;123523;1099;104341;-75
2022/07/10 08:24:28;;;;;;;3.90;2.00;;;;;;;26.41;36.89;99789.70;123518;1099;104284;-75
2022/07/10 08:26:59;;;;;;;8.67;2.43;;;;;;;26.48;36.65;99780.45;123549;1099;104424;-75
2022/07/10 08:29:31;;;;;;;3.97;2.33;;;;;;;26.64;36.43;99786.05;123567;1098;104724;-76
2022/07/10 08:32:02;;;;;;;6.80;2.70;;;;;;;26.70;35.16;99810.05;123431;1099;104286;-74
2022/07/10 08:34:34;;;;;;;3.73;2.60;;;;;;;26.70;34.97;99791.21;123647;1099;104310;-74
2022/07/10 08:37:06;;;;;;;8.03;3.60;;;;;;;26.77;35.38;99783.78;123556;1099;104373;-75
2022/07/10 08:39:38;;;;;;;8.27;3.63;;;;;;;26.82;34.94;99789.83;123472;1099;104364;-75
2022/07/10 08:42:13;;;;;;;3.03;2.30;;;;;;;26.79;34.72;99784.58;123533;1099;104377;-76
2022/07/10 08:44:44;;;;;;;8.77;2.70;;;;;;;26.83;34.24;99786.20;123565;1099;104383;-75
2022/07/10 08:47:17;;;;;;;2.73;1.90;;;;;;;26.89;34.69;99785.91;123508;1099;104300;-75
2022/07/10 08:49:50;;;;;;;4.70;2.40;;;;;;;26.88;34.33;99777.91;123560;1099;104169;-75
2022/07/10 08:52:32;;;;;;;4.27;1.90;;;;;;;26.98;34.55;99784.65;123439;1099;104404;-75
2022/07/10 08:55:05;;;;;;;1.63;1.20;;;;;;;26.97;34.54;99782.02;123497;1098;104335;-75
2022/07/10 08:57:38;;;;;;;7.57;1.90;;;;;;;27.00;34.10;99769.30;123636;1099;104341;-75
2022/07/10 09:00:12;;;;;;;3.40;2.10;;;;;;;27.08;34.24;99771.65;123529;1099;104299;-74
2022/07/10 09:02:43;;;;;;;2.40;1.80;;;;;;;27.19;34.20;99766.69;123577;1099;104275;-75
2022/07/10 09:05:15;;;;;;;3.17;1.97;;;;;;;27.23;34.76;99762.89;123530;1099;104376;-75
2022/07/10 09:07:46;;;;;;;6.33;2.07;;;;;;;27.26;34.30;99776.22;123581;1099;104315;-76
2022/07/10 09:10:20;;;;;;;4.65;1.45;;;;;;;27.14;33.74;99768.69;123475;1099;104312;-75
2022/07/10 09:12:57;;;;;;;2.07;1.30;;;;;;;27.06;33.76;99768.16;123550;1099;104271;-76
2022/07/10 09:15:32;;;;;;;6.43;1.30;;;;;;;26.99;33.58;99769.36;123641;1099;104268;-76
2022/07/10 09:18:05;;;;;;;2.47;1.60;;;;;;;27.03;32.46;99761.08;123560;1099;104395;-76
2022/07/10 09:20:36;;;;;;;;;;;;;;;27.01;31.99;99754.04;123634;1098;104256;-76
2022/07/10 09:23:18;;;;;;;5.80;1.83;;;;;;;27.11;32.80;99744.59;123672;1099;104264;-76
2022/07/10 09:25:51;;;;;;;2.40;1.57;;;;;;;27.20;33.09;99743.31;123572;1099;104262;-75
2022/07/10 09:28:24;;;;;;;2.87;1.40;;;;;;;27.23;32.78;99754.81;123618;1099;104264;-75
2022/07/10 09:30:54;;;;;;;;;;;;;;;27.14;32.63;99741.76;123440;1099;104319;-75
2022/07/10 09:33:29;;;;;;;3.30;1.50;;;;;;;27.22;32.92;99750.39;123786;1099;104274;-74
2022/07/10 09:36:07;;;;;;;2.20;1.40;;;;;;;27.30;32.90;99752.73;123662;1099;104355;-74
2022/07/10 09:39:00;;;;;;;2.43;1.23;;;;;;;27.38;32.37;99755.11;123440;1099;104377;-74
2022/07/10 09:41:33;;;;;;;6.37;1.60;;;;;;;27.44;32.68;99744.02;123669;1099;118960;-74
2022/07/10 09:44:08;;;;;;;6.17;1.50;;;;;;;27.49;32.96;99730.34;123601;1099;104366;-74
2022/07/10 09:46:42;;;;;;;5.40;1.83;;;;;;;27.57;32.29;99737.13;123645;1098;104213;-74
2022/07/10 09:49:15;;;;;;;2.33;1.33;;;;;;;27.60;31.86;99726.21;123475;1099;104239;-74
2022/07/10 09:51:48;;;;;;;3.30;1.60;;;;;;;27.58;30.96;99719.14;123646;1098;104268;-74
2022/07/10 09:54:20;;;;;;;2.90;1.40;;;;;;;27.56;31.73;99732.68;123784;1099;104252;-74
2022/07/10 09:56:53;;;;;;;6.27;1.53;;;;;;;27.65;31.62;99728.69;123689;1099;104310;-74
2022/07/10 09:59:26;;;;;;;3.97;1.47;;;;;;;27.67;31.54;99718.70;123724;1099;104318;-74
2022/07/10 10:02:01;;;;;;;1.32;1.22;;;;;;;27.39;30.86;99735.30;123672;1099;104347;-74
2022/07/10 10:04:34;;;;;;;2.43;1.40;;;;;;;27.23;31.15;99727.88;123556;1099;104797;-74
2022/07/10 10:07:12;;;;;;;2.10;1.23;;;;;;;27.20;30.71;99732.55;123797;1099;104170;-74
2022/07/10 10:09:48;;;;;;;3.80;1.30;;;;;;;27.22;30.78;99725.26;123617;1099;104318;-74
2022/07/10 10:12:28;;;;;;;2.65;1.35;;;;;;;27.30;30.79;99712.34;123657;1099;104422;-74
2022/07/10 10:15:01;;;;;;;2.13;1.10;;;;;;;27.50;30.82;99708.72;123346;1099;104249;-74
2022/07/10 10:17:31;;;;;;;;;;;;;;;27.46;30.06;99715.22;123695;1099;104236;-74
2022/07/10 10:23:04;;;;;;;6.53;1.50;;;;;;;27.42;30.35;99722.55;123437;1099;107986;-74
2022/07/10 10:25:37;;;;;;;3.43;1.20;;;;;;;27.45;30.02;99721.54;123962;1099;104271;-74
2022/07/10 10:28:12;;;;;;;2.17;1.30;;;;;;;27.53;29.71;99726.57;123635;1099;104642;-74
2022/07/10 10:30:46;;;;;;;2.70;1.50;;;;;;;27.50;30.23;99716.80;123769;1099;104367;-74
2022/07/10 10:33:47;;;;;;;2.50;1.33;;;;;;;27.43;29.68;99720.75;123605;1099;118986;-74
2022/07/10 10:36:48;;;;;;;2.47;1.30;;;;;;;27.46;29.93;99720.61;123538;1098;105410;-76
2022/07/10 10:39:21;;;;;;;2.07;1.40;;;;;;;27.54;29.85;99714.86;123811;1099;104293;-74
2022/07/10 10:41:55;;;;;;;;;;;;;;;27.35;29.89;99715.72;123751;1099;104264;-74
2022/07/10 10:44:32;;;;;;;2.92;1.20;;;;;;;27.19;29.56;99723.59;123646;1099;104229;-75
2022/07/10 10:47:07;;;;;;;3.37;1.43;;;;;;;27.11;30.00;99712.28;123737;1099;104242;-75
2022/07/10 10:50:05;;;;;;;5.37;1.57;;;;;;;27.25;29.81;99699.08;123756;1099;104323;-74
2022/07/10 10:53:00;;;;;;;1.70;1.50;;;;;;;27.44;29.60;99709.90;123613;1099;104315;-74
2022/07/10 10:55:32;;;;;;;3.77;1.50;;;;;;;27.57;29.06;99691.33;123812;1098;104338;-74
2022/07/10 10:58:19;;;;;;;1.50;1.20;;;;;;;27.61;28.71;99709.11;123651;1099;104315;-75
2022/07/10 11:00:51;;;;;;;3.20;1.33;;;;;;;27.71;28.79;99693.37;123761;1099;104255;-75
2022/07/10 11:03:43;;;;;;;3.47;1.50;;;;;;;27.79;28.91;99704.64;123748;1099;104384;-75
2022/07/10 11:06:45;;;;;;;5.50;1.50;;;;;;;27.64;29.47;99701.81;123444;1099;104329;-75
2022/07/10 11:09:30;;;;;;;3.15;1.45;;;;;;;27.36;28.81;99698.63;123720;1099;104411;-75
2022/07/10 11:12:03;;;;;;;3.97;1.40;;;;;;;27.15;28.91;99686.97;124040;1099;104261;-75
2022/07/10 11:14:37;;;;;;;2.43;1.60;;;;;;;27.22;29.18;99687.55;123673;1099;104268;-74
2022/07/10 11:17:09;;;;;;;3.60;1.53;;;;;;;27.45;29.12;99681.13;123886;1099;104273;-74
2022/07/10 11:19:41;;;;;;;3.27;1.80;;;;;;;27.53;29.10;99678.94;123712;1099;104357;-75
2022/07/10 11:22:53;;;;;;;2.80;1.60;;;;;;;27.44;29.02;99691.05;123672;1099;104312;-75
2022/07/10 11:25:42;;;;;;;1.93;1.50;;;;;;;27.52;29.32;99687.98;123781;1099;104242;-74
2022/07/10 11:28:14;;;;;;;1.50;1.40;;;;;;;27.63;28.79;99679.39;123674;1099;104374;-75
2022/07/10 11:30:52;;;;;;;2.00;1.43;;;;;;;27.70;28.58;99675.44;123663;1099;104369;-75
2022/07/10 11:33:26;;;;;;;3.67;1.20;;;;;;;27.83;28.45;99669.45;123719;1099;104238;-74
2022/07/10 11:35:58;;;;;;;4.07;1.80;;;;;;;27.87;28.35;99676.45;123626;1099;104379;-75
2022/07/10 11:38:31;;;;;;;1.60;1.40;;;;;;;27.96;28.26;99673.34;123611;1099;104331;-75
2022/07/10 11:41:05;;;;;;;2.40;1.37;;;;;;;27.98;28.68;99674.98;123724;1099;104348;-75
2022/07/10 11:43:36;;;;;;;3.53;1.50;;;;;;;28.04;28.37;99673.81;123743;1099;104239;-75
2022/07/10 11:46:14;;;;;;;5.00;1.60;;;;;;;28.00;28.51;99671.35;123742;1099;104252;-75
2022/07/10 11:48:47;;;;;;;1.47;1.03;;;;;;;27.98;28.45;99666.89;123726;1099;105068;-75
2022/07/10 11:51:25;;;;;;;1.70;1.27;;;;;;;28.08;28.23;99664.64;123870;1099;104246;-75
2022/07/10 11:54:03;;;;;;;1.30;1.20;;;;;;;28.17;27.87;99660.58;123560;1099;104621;-75
2022/07/10 11:56:36;;;;;;;1.80;1.40;;;;;;;28.26;28.29;99676.30;123516;1099;104389;-75
2022/07/10 11:59:07;;;;;;;;;;;;;;;28.11;27.77;99661.79;123395;1099;104309;-75
2022/07/10 12:01:45;;;;;;;3.33;1.97;;;;;;;27.91;28.13;99667.27;123849;1099;104331;-75